Wadi Safaga — 6AGP — position and weather

sailwx.info

Track history (hours):
 
Tides and Currents Weather Stations Pressure Air Temp Water Temp Dewpoint Dewpoint Depression Visibility Wind Speed Wind Dir Waves Ship Positions

Wadi Safaga

Last reported at 2018-Jun-16 17:13 UTC. Time now 2018-Jun-20 22:37 UTC.
Position N 31°24' E 032°20'.

Length 229 m; draft 13 m.

Type: Cargo ship. MMSI: 622121422.

Date/timePositionNaut miles runAvg speedWind from/ knotsBaromVisibWave heightAir tempDewpointWater temp
2018-Jun-16 17:13N 31°24' E 032°20'0 0.1
2018-Jun-16 16:59N 31°24' E 032°20'0 0.0
2018-Jun-16 16:30N 31°24' E 032°20'0 0.0
2018-Jun-16 15:51N 31°24' E 032°20'0 0.0
2018-Jun-16 15:25N 31°24' E 032°20'0 0.0
2018-Jun-16 14:52N 31°24' E 032°20'0 0.0
2018-Jun-16 14:28N 31°24' E 032°20'99 9.2
2018-Jun-16 03:44N 32°37' E 031°01'610.9
2018-Jun-16 03:11N 32°41' E 030°56'310.9
2018-Jun-16 02:57N 32°43' E 030°54'510.9
2018-Jun-16 02:31N 32°46' E 030°50'610.8
2018-Jun-16 01:59N 32°51' E 030°46'510.7
2018-Jun-16 01:31N 32°54' E 030°41'510.7
2018-Jun-16 01:00N 32°58' E 030°37'910.6
2018-Jun-16 00:11N 33°05' E 030°30'210.4
2018-Jun-16 00:00N 33°06' E 030°29'1610.5
2018-Jun-15 22:31N 33°18' E 030°16'011.3
2018-Jun-15 22:30N 33°18' E 030°16'510.6
2018-Jun-15 22:00N 33°22' E 030°12'510.8
2018-Jun-15 21:30N 33°26' E 030°08'611.0
2018-Jun-15 21:00N 33°30' E 030°03'611.1
2018-Jun-15 20:30N 33°34' E 029°59'611.0
2018-Jun-15 20:00N 33°38' E 029°54'510.9
2018-Jun-15 19:30N 33°42' E 029°50'711.0
2018-Jun-15 18:54N 33°47' E 029°45'910.9
2018-Jun-15 18:03N 33°54' E 029°37'111.3
2018-Jun-15 18:00N 33°55' E 029°37'611.0
2018-Jun-15 17:30N 33°59' E 029°33'3511.2
2018-Jun-15 14:22N 34°25' E 029°04'411.1
2018-Jun-15 14:00N 34°28' E 029°01'611.2
2018-Jun-15 13:30N 34°32' E 028°56'1611.3
2018-Jun-15 12:08N 34°44' E 028°44'211.3
2018-Jun-15 12:00N 34°45' E 028°43'611.2
2018-Jun-15 11:26N 34°50' E 028°38'511.1
2018-Jun-15 11:00N 34°53' E 028°34'611.1
2018-Jun-15 10:30N 34°57' E 028°29'2311.3
2018-Jun-15 08:27N 35°15' E 028°10'17111.0
2018-Jun-14 16:53N 37°27' E 025°56'410.9
2018-Jun-14 16:30N 37°29' E 025°52'510.6
2018-Jun-14 16:00N 37°34' E 025°48'510.6
2018-Jun-14 15:30N 37°39' E 025°46'510.4
2018-Jun-14 15:00N 37°44' E 025°44'511.0
2018-Jun-14 14:30N 37°49' E 025°42'11510.8
2018-Jun-14 03:52N 39°44' E 025°35'711.7
2018-Jun-14 03:19N 39°48' E 025°42'412.2
2018-Jun-14 03:00N 39°51' E 025°45'612.3
2018-Jun-14 02:30N 39°55' E 025°51'612.0
2018-Jun-14 01:59N 39°59' E 025°57'511.2
2018-Jun-14 01:30N 40°01' E 026°04'2910.1
2018-Jun-13 22:40N 40°18' E 026°34'114 5.7
2018-Jun-13 02:35N 40°58' E 028°55'0 0.0
2018-Jun-13 02:23N 40°58' E 028°55'0 0.0
2018-Jun-13 01:53N 40°58' E 028°55'0 0.2
2018-Jun-13 01:11N 40°58' E 028°55'0 0.3
2018-Jun-13 00:59N 40°58' E 028°55'0 0.2
2018-Jun-13 00:23N 40°58' E 028°55'1 2.9
2018-Jun-12 23:59N 40°58' E 028°57'25 7.1
2018-Jun-12 20:29N 41°22' E 029°05'0 0.4
2018-Jun-12 20:00N 41°22' E 029°05'0 0.2
2018-Jun-12 19:30N 41°22' E 029°05'0 0.2
2018-Jun-12 19:00N 41°22' E 029°05'68 6.2
2018-Jun-12 07:55N 41°53' E 030°26'710.8
2018-Jun-12 07:17N 41°56' E 030°35'310.8
2018-Jun-12 07:01N 41°58' E 030°38'510.7
2018-Jun-12 06:30N 42°00' E 030°44'510.9
2018-Jun-12 06:00N 42°03' E 030°51'511.0
2018-Jun-12 05:31N 42°05' E 030°57'611.1
2018-Jun-12 05:01N 42°08' E 031°04'2211.1
2018-Jun-12 03:03N 42°18' E 031°30'1911.3
2018-Jun-12 01:24N 42°27' E 031°52'511.5
2018-Jun-12 00:57N 42°30' E 031°58'511.0
2018-Jun-12 00:30N 42°32' E 032°04'611.4
2018-Jun-12 00:00N 42°34' E 032°11'611.4
2018-Jun-11 23:30N 42°37' E 032°18'611.3
2018-Jun-11 23:00N 42°40' E 032°25'5811.6
2018-Jun-11 17:59N 43°07' E 033°35'612.0
2018-Jun-11 17:29N 43°10' E 033°42'1011.7
2018-Jun-11 16:41N 43°14' E 033°53'211.6
2018-Jun-11 16:30N 43°15' E 033°56'811.4
2018-Jun-11 15:50N 43°19' E 034°05'1911.4
2018-Jun-11 14:12N 43°28' E 034°28'211.5
2018-Jun-11 14:00N 43°29' E 034°31'611.4
2018-Jun-11 13:30N 43°31' E 034°37'611.3
2018-Jun-11 13:00N 43°34' E 034°44'611.1
2018-Jun-11 12:30N 43°36' E 034°51'611.1
2018-Jun-11 12:01N 43°39' E 034°58'611.0
2018-Jun-11 11:28N 43°42' E 035°05'2610.9
2018-Jun-11 09:06N 43°54' E 035°37'111.0
2018-Jun-11 09:00N 43°54' E 035°38'510.8
2018-Jun-11 08:31N 43°57' E 035°45'510.8
2018-Jun-11 08:00N 43°60' E 035°51'510.8
2018-Jun-11 07:30N 44°02' E 035°58'61 2.3
2018-Jun-10 04:26N 44°52' E 036°47'0 0.0
2018-Jun-10 03:59N 44°52' E 036°47'0 0.0
2018-Jun-10 03:29N 44°52' E 036°47'0 0.0
2018-Jun-10 02:59N 44°52' E 036°47'0 0.0
2018-Jun-10 02:29N 44°52' E 036°47'0 0.0
2018-Jun-10 01:59N 44°52' E 036°47'0 0.0
2018-Jun-08 23:35N 44°52' E 036°47'0 0.0
2018-Jun-08 23:29N 44°52' E 036°47'  
Track history (hours):
 
Tides and Currents Weather Stations Pressure Air Temp Water Temp Dewpoint Dewpoint Depression Visibility Wind Speed Wind Dir Waves Ship Positions

Wadi Safaga

Last reported at 2018-Jun-16 17:13 UTC. Time now 2018-Jun-20 22:37 UTC.
Position N 31°24' E 032°20'.

Length 229 m; draft 13 m.

Type: Cargo ship. MMSI: 622121422.

Date/timePositionNaut miles runAvg speedWind from/ knotsBaromVisibWave heightAir tempDewpointWater temp
2018-Jun-16 17:13N 31°24' E 032°20'0 0.1
2018-Jun-16 16:59N 31°24' E 032°20'0 0.0
2018-Jun-16 16:30N 31°24' E 032°20'0 0.0
2018-Jun-16 15:51N 31°24' E 032°20'0 0.0
2018-Jun-16 15:25N 31°24' E 032°20'0 0.0
2018-Jun-16 14:52N 31°24' E 032°20'0 0.0
2018-Jun-16 14:28N 31°24' E 032°20'99 9.2
2018-Jun-16 03:44N 32°37' E 031°01'610.9
2018-Jun-16 03:11N 32°41' E 030°56'310.9
2018-Jun-16 02:57N 32°43' E 030°54'510.9
2018-Jun-16 02:31N 32°46' E 030°50'610.8
2018-Jun-16 01:59N 32°51' E 030°46'510.7
2018-Jun-16 01:31N 32°54' E 030°41'510.7
2018-Jun-16 01:00N 32°58' E 030°37'910.6
2018-Jun-16 00:11N 33°05' E 030°30'210.4
2018-Jun-16 00:00N 33°06' E 030°29'1610.5
2018-Jun-15 22:31N 33°18' E 030°16'011.3
2018-Jun-15 22:30N 33°18' E 030°16'510.6
2018-Jun-15 22:00N 33°22' E 030°12'510.8
2018-Jun-15 21:30N 33°26' E 030°08'611.0
2018-Jun-15 21:00N 33°30' E 030°03'611.1
2018-Jun-15 20:30N 33°34' E 029°59'611.0
2018-Jun-15 20:00N 33°38' E 029°54'510.9
2018-Jun-15 19:30N 33°42' E 029°50'711.0
2018-Jun-15 18:54N 33°47' E 029°45'910.9
2018-Jun-15 18:03N 33°54' E 029°37'111.3
2018-Jun-15 18:00N 33°55' E 029°37'611.0
2018-Jun-15 17:30N 33°59' E 029°33'3511.2
2018-Jun-15 14:22N 34°25' E 029°04'411.1
2018-Jun-15 14:00N 34°28' E 029°01'611.2
2018-Jun-15 13:30N 34°32' E 028°56'1611.3
2018-Jun-15 12:08N 34°44' E 028°44'211.3
2018-Jun-15 12:00N 34°45' E 028°43'611.2
2018-Jun-15 11:26N 34°50' E 028°38'511.1
2018-Jun-15 11:00N 34°53' E 028°34'611.1
2018-Jun-15 10:30N 34°57' E 028°29'2311.3
2018-Jun-15 08:27N 35°15' E 028°10'17111.0
2018-Jun-14 16:53N 37°27' E 025°56'410.9
2018-Jun-14 16:30N 37°29' E 025°52'510.6
2018-Jun-14 16:00N 37°34' E 025°48'510.6
2018-Jun-14 15:30N 37°39' E 025°46'510.4
2018-Jun-14 15:00N 37°44' E 025°44'511.0
2018-Jun-14 14:30N 37°49' E 025°42'11510.8
2018-Jun-14 03:52N 39°44' E 025°35'711.7
2018-Jun-14 03:19N 39°48' E 025°42'412.2
2018-Jun-14 03:00N 39°51' E 025°45'612.3
2018-Jun-14 02:30N 39°55' E 025°51'612.0
2018-Jun-14 01:59N 39°59' E 025°57'511.2
2018-Jun-14 01:30N 40°01' E 026°04'2910.1
2018-Jun-13 22:40N 40°18' E 026°34'114 5.7
2018-Jun-13 02:35N 40°58' E 028°55'0 0.0
2018-Jun-13 02:23N 40°58' E 028°55'0 0.0
2018-Jun-13 01:53N 40°58' E 028°55'0 0.2
2018-Jun-13 01:11N 40°58' E 028°55'0 0.3
2018-Jun-13 00:59N 40°58' E 028°55'0 0.2
2018-Jun-13 00:23N 40°58' E 028°55'1 2.9
2018-Jun-12 23:59N 40°58' E 028°57'25 7.1
2018-Jun-12 20:29N 41°22' E 029°05'0 0.4
2018-Jun-12 20:00N 41°22' E 029°05'0 0.2
2018-Jun-12 19:30N 41°22' E 029°05'0 0.2
2018-Jun-12 19:00N 41°22' E 029°05'68 6.2
2018-Jun-12 07:55N 41°53' E 030°26'710.8
2018-Jun-12 07:17N 41°56' E 030°35'310.8
2018-Jun-12 07:01N 41°58' E 030°38'510.7
2018-Jun-12 06:30N 42°00' E 030°44'510.9
2018-Jun-12 06:00N 42°03' E 030°51'511.0
2018-Jun-12 05:31N 42°05' E 030°57'611.1
2018-Jun-12 05:01N 42°08' E 031°04'2211.1
2018-Jun-12 03:03N 42°18' E 031°30'1911.3
2018-Jun-12 01:24N 42°27' E 031°52'511.5
2018-Jun-12 00:57N 42°30' E 031°58'511.0
2018-Jun-12 00:30N 42°32' E 032°04'611.4
2018-Jun-12 00:00N 42°34' E 032°11'611.4
2018-Jun-11 23:30N 42°37' E 032°18'611.3
2018-Jun-11 23:00N 42°40' E 032°25'5811.6
2018-Jun-11 17:59N 43°07' E 033°35'612.0
2018-Jun-11 17:29N 43°10' E 033°42'1011.7
2018-Jun-11 16:41N 43°14' E 033°53'211.6
2018-Jun-11 16:30N 43°15' E 033°56'811.4
2018-Jun-11 15:50N 43°19' E 034°05'1911.4
2018-Jun-11 14:12N 43°28' E 034°28'211.5
2018-Jun-11 14:00N 43°29' E 034°31'611.4
2018-Jun-11 13:30N 43°31' E 034°37'611.3
2018-Jun-11 13:00N 43°34' E 034°44'611.1
2018-Jun-11 12:30N 43°36' E 034°51'611.1
2018-Jun-11 12:01N 43°39' E 034°58'611.0
2018-Jun-11 11:28N 43°42' E 035°05'2610.9
2018-Jun-11 09:06N 43°54' E 035°37'111.0
2018-Jun-11 09:00N 43°54' E 035°38'510.8
2018-Jun-11 08:31N 43°57' E 035°45'510.8
2018-Jun-11 08:00N 43°60' E 035°51'510.8
2018-Jun-11 07:30N 44°02' E 035°58'61 2.3
2018-Jun-10 04:26N 44°52' E 036°47'0 0.0
2018-Jun-10 03:59N 44°52' E 036°47'0 0.0
2018-Jun-10 03:29N 44°52' E 036°47'0 0.0
2018-Jun-10 02:59N 44°52' E 036°47'0 0.0
2018-Jun-10 02:29N 44°52' E 036°47'0 0.0
2018-Jun-10 01:59N 44°52' E 036°47'0 0.0
2018-Jun-08 23:35N 44°52' E 036°47'0 0.0
2018-Jun-08 23:29N 44°52' E 036°47'  

Dump ship's entire track history